Terminal Aerodrome Forecast
Issued by NWS

Home | Current Version | Previous Version | Graphics & Text | Print | Product List | Glossary On
Versions: 1 2 3 4 5 6 7 8 9 10 11 12 13 14 15
000
FTUS43 KIWX 251500 AAB
TAFSBN
TAF AMD
KSBN 251509Z 2515/2612 25005KT 4SM BR SCT005
      TEMPO 2515/2517 BKN015
     FM251700 28013G20KT P6SM SCT020
     FM260000 29007KT P6SM FEW250=

USA.gov is the U.S. government's official web portal to all federal, state and local government web resources and services.